sensor_id;sensor_type;location;lat;lon;timestamp;temperature;humidity
5419;DHT22;2732;52.092;11.556;2024-03-23T00:52:58;8.80;99.90
5419;DHT22;2732;52.092;11.556;2024-03-23T00:57:58;8.70;99.90
5419;DHT22;2732;52.092;11.556;2024-03-23T01:02:59;8.70;99.90
5419;DHT22;2732;52.092;11.556;2024-03-23T01:07:59;8.70;99.90
5419;DHT22;2732;52.092;11.556;2024-03-23T01:13:00;8.70;99.90
5419;DHT22;2732;52.092;11.556;2024-03-23T01:18:00;8.70;99.90
5419;DHT22;2732;52.092;11.556;2024-03-23T01:23:01;8.70;99.90
5419;DHT22;2732;52.092;11.556;2024-03-23T01:28:01;8.60;99.90
5419;DHT22;2732;52.092;11.556;2024-03-23T01:33:02;8.60;99.90
5419;DHT22;2732;52.092;11.556;2024-03-23T01:38:03;8.60;99.90
5419;DHT22;2732;52.092;11.556;2024-03-23T01:43:08;8.60;99.90
5419;DHT22;2732;52.092;11.556;2024-03-23T01:48:08;8.60;99.90
5419;DHT22;2732;52.092;11.556;2024-03-23T01:53:11;8.50;99.90
5419;DHT22;2732;52.092;11.556;2024-03-23T01:58:11;8.50;99.90
5419;DHT22;2732;52.092;11.556;2024-03-23T02:03:25;8.50;99.90
5419;DHT22;2732;52.092;11.556;2024-03-23T02:08:27;8.50;99.90
5419;DHT22;2732;52.092;11.556;2024-03-23T02:13:29;8.50;99.90
5419;DHT22;2732;52.092;11.556;2024-03-23T02:18:30;8.50;99.90
5419;DHT22;2732;52.092;11.556;2024-03-23T02:23:30;8.40;99.90
5419;DHT22;2732;52.092;11.556;2024-03-23T02:28:31;8.40;99.90
5419;DHT22;2732;52.092;11.556;2024-03-23T02:33:32;8.30;99.90
5419;DHT22;2732;52.092;11.556;2024-03-23T02:38:33;8.30;99.90
5419;DHT22;2732;52.092;11.556;2024-03-23T02:43:33;8.20;99.90
5419;DHT22;2732;52.092;11.556;2024-03-23T02:48:34;8.10;99.90
5419;DHT22;2732;52.092;11.556;2024-03-23T02:53:34;8.10;99.90
5419;DHT22;2732;52.092;11.556;2024-03-23T02:58:35;8.00;99.90
5419;DHT22;2732;52.092;11.556;2024-03-23T03:03:35;8.00;99.90
5419;DHT22;2732;52.092;11.556;2024-03-23T03:08:36;7.90;99.90
5419;DHT22;2732;52.092;11.556;2024-03-23T03:13:37;7.90;99.90
5419;DHT22;2732;52.092;11.556;2024-03-23T03:18:37;7.80;99.90
5419;DHT22;2732;52.092;11.556;2024-03-23T03:23:39;7.80;99.90
5419;DHT22;2732;52.092;11.556;2024-03-23T03:28:40;7.70;99.90
5419;DHT22;2732;52.092;11.556;2024-03-23T03:33:40;7.70;99.90
5419;DHT22;2732;52.092;11.556;2024-03-23T03:38:41;7.70;99.90
5419;DHT22;2732;52.092;11.556;2024-03-23T03:43:42;7.60;99.90
5419;DHT22;2732;52.092;11.556;2024-03-23T03:48:42;7.60;99.90
5419;DHT22;2732;52.092;11.556;2024-03-23T03:53:45;7.60;99.90
5419;DHT22;2732;52.092;11.556;2024-03-23T03:58:46;7.60;99.90
5419;DHT22;2732;52.092;11.556;2024-03-23T04:03:46;7.50;99.90
5419;DHT22;2732;52.092;11.556;2024-03-23T04:08:47;7.50;99.90
5419;DHT22;2732;52.092;11.556;2024-03-23T04:13:48;7.50;99.90
5419;DHT22;2732;52.092;11.556;2024-03-23T04:18:48;7.40;99.90
5419;DHT22;2732;52.092;11.556;2024-03-23T04:23:49;7.40;99.90
5419;DHT22;2732;52.092;11.556;2024-03-23T04:28:50;7.30;99.90
5419;DHT22;2732;52.092;11.556;2024-03-23T04:33:50;7.30;99.90
5419;DHT22;2732;52.092;11.556;2024-03-23T04:38:51;7.30;99.90
5419;DHT22;2732;52.092;11.556;2024-03-23T04:43:52;7.20;99.90
5419;DHT22;2732;52.092;11.556;2024-03-23T04:48:53;7.20;99.90
5419;DHT22;2732;52.092;11.556;2024-03-23T04:53:54;7.20;99.90
5419;DHT22;2732;52.092;11.556;2024-03-23T04:58:54;7.10;99.90
5419;DHT22;2732;52.092;11.556;2024-03-23T05:03:55;7.10;99.90
5419;DHT22;2732;52.092;11.556;2024-03-23T05:08:55;7.00;99.90
5419;DHT22;2732;52.092;11.556;2024-03-23T05:13:56;7.00;99.90
5419;DHT22;2732;52.092;11.556;2024-03-23T05:18:57;6.90;99.90
5419;DHT22;2732;52.092;11.556;2024-03-23T05:23:57;6.90;99.90
5419;DHT22;2732;52.092;11.556;2024-03-23T05:28:58;6.90;99.90
5419;DHT22;2732;52.092;11.556;2024-03-23T05:33:58;6.90;99.90
5419;DHT22;2732;52.092;11.556;2024-03-23T05:38:59;6.80;99.90
5419;DHT22;2732;52.092;11.556;2024-03-23T05:44:00;6.80;99.90
5419;DHT22;2732;52.092;11.556;2024-03-23T05:49:02;6.80;99.90
5419;DHT22;2732;52.092;11.556;2024-03-23T05:54:03;6.80;99.90
5419;DHT22;2732;52.092;11.556;2024-03-23T05:59:03;6.70;99.90
5419;DHT22;2732;52.092;11.556;2024-03-23T06:04:04;6.70;99.90
5419;DHT22;2732;52.092;11.556;2024-03-23T06:09:05;6.70;99.90
5419;DHT22;2732;52.092;11.556;2024-03-23T06:14:05;6.70;99.90
5419;DHT22;2732;52.092;11.556;2024-03-23T06:19:06;6.70;99.90
5419;DHT22;2732;52.092;11.556;2024-03-23T06:24:07;6.70;99.90
5419;DHT22;2732;52.092;11.556;2024-03-23T06:29:07;6.70;99.90
5419;DHT22;2732;52.092;11.556;2024-03-23T06:34:08;6.70;99.90
5419;DHT22;2732;52.092;11.556;2024-03-23T06:39:09;6.70;99.90
5419;DHT22;2732;52.092;11.556;2024-03-23T06:44:12;6.70;99.90
5419;DHT22;2732;52.092;11.556;2024-03-23T06:49:13;6.70;99.90
5419;DHT22;2732;52.092;11.556;2024-03-23T06:54:14;6.70;99.90
5419;DHT22;2732;52.092;11.556;2024-03-23T06:59:15;6.70;99.90
5419;DHT22;2732;52.092;11.556;2024-03-23T07:04:15;6.70;99.90
5419;DHT22;2732;52.092;11.556;2024-03-23T07:09:16;6.70;99.90
5419;DHT22;2732;52.092;11.556;2024-03-23T07:14:16;6.70;99.90
5419;DHT22;2732;52.092;11.556;2024-03-23T07:19:18;6.70;99.90
5419;DHT22;2732;52.092;11.556;2024-03-23T07:24:18;6.70;99.90
5419;DHT22;2732;52.092;11.556;2024-03-23T07:29:19;6.70;99.90
5419;DHT22;2732;52.092;11.556;2024-03-23T07:34:20;6.70;99.90
5419;DHT22;2732;52.092;11.556;2024-03-23T07:39:20;6.70;99.90
5419;DHT22;2732;52.092;11.556;2024-03-23T07:44:21;6.70;99.90
5419;DHT22;2732;52.092;11.556;2024-03-23T07:49:21;6.70;99.90
5419;DHT22;2732;52.092;11.556;2024-03-23T07:54:22;6.60;99.90
5419;DHT22;2732;52.092;11.556;2024-03-23T07:59:22;6.60;99.90
5419;DHT22;2732;52.092;11.556;2024-03-23T08:04:23;6.70;99.90
5419;DHT22;2732;52.092;11.556;2024-03-23T08:09:24;6.70;99.90
5419;DHT22;2732;52.092;11.556;2024-03-23T08:14:24;6.70;99.90
5419;DHT22;2732;52.092;11.556;2024-03-23T08:19:25;6.70;99.90
5419;DHT22;2732;52.092;11.556;2024-03-23T08:24:25;6.70;99.90
5419;DHT22;2732;52.092;11.556;2024-03-23T08:29:26;6.70;99.90
5419;DHT22;2732;52.092;11.556;2024-03-23T08:34:26;6.70;99.90
5419;DHT22;2732;52.092;11.556;2024-03-23T08:39:27;6.70;99.90
5419;DHT22;2732;52.092;11.556;2024-03-23T08:44:28;6.80;99.90
5419;DHT22;2732;52.092;11.556;2024-03-23T08:49:30;6.80;99.90
5419;DHT22;2732;52.092;11.556;2024-03-23T08:54:31;6.80;99.90
5419;DHT22;2732;52.092;11.556;2024-03-23T08:59:31;6.80;99.90
5419;DHT22;2732;52.092;11.556;2024-03-23T09:04:32;6.70;99.90
5419;DHT22;2732;52.092;11.556;2024-03-23T09:09:33;6.80;99.90
5419;DHT22;2732;52.092;11.556;2024-03-23T09:14:34;6.90;99.90
5419;DHT22;2732;52.092;11.556;2024-03-23T09:19:34;7.00;99.90
5419;DHT22;2732;52.092;11.556;2024-03-23T09:24:35;7.00;99.90
5419;DHT22;2732;52.092;11.556;2024-03-23T09:29:37;7.00;99.90
5419;DHT22;2732;52.092;11.556;2024-03-23T09:34:37;7.00;99.90
5419;DHT22;2732;52.092;11.556;2024-03-23T09:39:38;7.00;99.90
5419;DHT22;2732;52.092;11.556;2024-03-23T09:44:38;7.00;99.90
5419;DHT22;2732;52.092;11.556;2024-03-23T09:49:39;7.10;99.90
5419;DHT22;2732;52.092;11.556;2024-03-23T09:54:40;7.30;99.90
5419;DHT22;2732;52.092;11.556;2024-03-23T09:59:41;7.50;99.90
5419;DHT22;2732;52.092;11.556;2024-03-23T10:04:42;7.60;99.90
5419;DHT22;2732;52.092;11.556;2024-03-23T10:09:43;7.90;99.90
5419;DHT22;2732;52.092;11.556;2024-03-23T10:14:44;8.10;99.90
5419;DHT22;2732;52.092;11.556;2024-03-23T10:24:48;8.20;99.90
5419;DHT22;2732;52.092;11.556;2024-03-23T10:29:49;8.20;99.90
5419;DHT22;2732;52.092;11.556;2024-03-23T10:34:50;8.20;99.90
5419;DHT22;2732;52.092;11.556;2024-03-23T10:39:51;8.30;99.90
5419;DHT22;2732;52.092;11.556;2024-03-23T10:44:51;8.40;99.90
5419;DHT22;2732;52.092;11.556;2024-03-23T10:49:54;8.50;99.90
5419;DHT22;2732;52.092;11.556;2024-03-23T10:54:55;8.70;99.90
5419;DHT22;2732;52.092;11.556;2024-03-23T10:59:58;8.60;99.90
5419;DHT22;2732;52.092;11.556;2024-03-23T11:04:58;8.50;99.90
5419;DHT22;2732;52.092;11.556;2024-03-23T11:10:00;8.20;99.90
5419;DHT22;2732;52.092;11.556;2024-03-23T11:15:10;8.00;99.90
5419;DHT22;2732;52.092;11.556;2024-03-23T11:20:11;8.00;99.90
5419;DHT22;2732;52.092;11.556;2024-03-23T11:30:22;8.60;99.90
5419;DHT22;2732;52.092;11.556;2024-03-23T11:35:38;9.20;99.90
5419;DHT22;2732;52.092;11.556;2024-03-23T11:40:43;10.30;99.90
5419;DHT22;2732;52.092;11.556;2024-03-23T11:45:53;11.10;99.90
5419;DHT22;2732;52.092;11.556;2024-03-23T11:50:57;11.40;99.90
5419;DHT22;2732;52.092;11.556;2024-03-23T11:56:00;11.20;99.90
5419;DHT22;2732;52.092;11.556;2024-03-23T12:01:03;10.80;99.90
5419;DHT22;2732;52.092;11.556;2024-03-23T12:06:05;10.50;99.90
5419;DHT22;2732;52.092;11.556;2024-03-23T12:11:15;10.20;99.90
5419;DHT22;2732;52.092;11.556;2024-03-23T12:16:18;10.40;99.90
5419;DHT22;2732;52.092;11.556;2024-03-23T12:21:20;10.10;99.90
5419;DHT22;2732;52.092;11.556;2024-03-23T12:26:23;9.90;99.90
5419;DHT22;2732;52.092;11.556;2024-03-23T12:31:23;9.60;99.90
5419;DHT22;2732;52.092;11.556;2024-03-23T12:36:24;9.30;99.90
5419;DHT22;2732;52.092;11.556;2024-03-23T12:41:25;9.10;99.90
5419;DHT22;2732;52.092;11.556;2024-03-23T12:46:26;9.30;99.90
5419;DHT22;2732;52.092;11.556;2024-03-23T12:51:26;10.00;99.90
5419;DHT22;2732;52.092;11.556;2024-03-23T12:56:27;10.90;99.90
5419;DHT22;2732;52.092;11.556;2024-03-23T13:01:30;11.00;99.90
5419;DHT22;2732;52.092;11.556;2024-03-23T13:06:31;10.80;99.90
5419;DHT22;2732;52.092;11.556;2024-03-23T13:11:35;10.40;99.90
5419;DHT22;2732;52.092;11.556;2024-03-23T13:16:35;10.10;99.90
5419;DHT22;2732;52.092;11.556;2024-03-23T13:21:36;9.80;99.90
5419;DHT22;2732;52.092;11.556;2024-03-23T13:26:36;9.50;99.90
5419;DHT22;2732;52.092;11.556;2024-03-23T13:31:37;9.80;99.90
5419;DHT22;2732;52.092;11.556;2024-03-23T13:36:37;9.60;99.90
5419;DHT22;2732;52.092;11.556;2024-03-23T13:41:45;9.30;99.90
5419;DHT22;2732;52.092;11.556;2024-03-23T13:46:46;9.00;99.90
5419;DHT22;2732;52.092;11.556;2024-03-23T13:51:47;8.70;99.90
5419;DHT22;2732;52.092;11.556;2024-03-23T13:56:49;8.70;99.90
5419;DHT22;2732;52.092;11.556;2024-03-23T14:01:51;8.90;99.90
5419;DHT22;2732;52.092;11.556;2024-03-23T14:06:51;9.80;99.90
5419;DHT22;2732;52.092;11.556;2024-03-23T14:11:52;10.50;99.90
5419;DHT22;2732;52.092;11.556;2024-03-23T14:16:53;10.40;99.90
5419;DHT22;2732;52.092;11.556;2024-03-23T14:21:53;10.10;99.90
5419;DHT22;2732;52.092;11.556;2024-03-23T14:26:54;9.80;99.90
5419;DHT22;2732;52.092;11.556;2024-03-23T14:31:54;9.40;99.90
5419;DHT22;2732;52.092;11.556;2024-03-23T14:36:55;9.10;99.90
5419;DHT22;2732;52.092;11.556;2024-03-23T14:41:56;8.80;99.90
5419;DHT22;2732;52.092;11.556;2024-03-23T14:46:57;8.50;99.90
5419;DHT22;2732;52.092;11.556;2024-03-23T14:51:57;8.20;99.90
5419;DHT22;2732;52.092;11.556;2024-03-23T14:56:58;8.10;99.90
5419;DHT22;2732;52.092;11.556;2024-03-23T15:01:58;8.00;99.90
5419;DHT22;2732;52.092;11.556;2024-03-23T15:07:00;8.40;99.90
5419;DHT22;2732;52.092;11.556;2024-03-23T15:12:01;8.80;99.90
5419;DHT22;2732;52.092;11.556;2024-03-23T15:17:01;8.90;99.90
5419;DHT22;2732;52.092;11.556;2024-03-23T15:22:05;8.70;99.90
5419;DHT22;2732;52.092;11.556;2024-03-23T15:27:06;9.10;99.90
5419;DHT22;2732;52.092;11.556;2024-03-23T15:32:09;9.60;99.90
5419;DHT22;2732;52.092;11.556;2024-03-23T15:37:09;9.80;99.90
5419;DHT22;2732;52.092;11.556;2024-03-23T15:42:10;9.90;99.90
5419;DHT22;2732;52.092;11.556;2024-03-23T15:47:10;9.70;99.90
5419;DHT22;2732;52.092;11.556;2024-03-23T15:52:11;9.40;99.90
5419;DHT22;2732;52.092;11.556;2024-03-23T15:57:12;9.10;99.90
5419;DHT22;2732;52.092;11.556;2024-03-23T16:02:12;8.90;99.90
5419;DHT22;2732;52.092;11.556;2024-03-23T16:07:13;8.80;99.90
5419;DHT22;2732;52.092;11.556;2024-03-23T16:12:13;8.80;99.90
5419;DHT22;2732;52.092;11.556;2024-03-23T16:17:14;8.70;99.90
5419;DHT22;2732;52.092;11.556;2024-03-23T16:22:15;8.70;99.90
5419;DHT22;2732;52.092;11.556;2024-03-23T16:27:15;8.80;99.90
5419;DHT22;2732;52.092;11.556;2024-03-23T16:32:17;8.90;99.90
5419;DHT22;2732;52.092;11.556;2024-03-23T16:37:23;8.80;99.90
5419;DHT22;2732;52.092;11.556;2024-03-23T16:42:42;8.80;99.90
5419;DHT22;2732;52.092;11.556;2024-03-23T16:47:48;8.60;99.90
5419;DHT22;2732;52.092;11.556;2024-03-23T16:53:19;8.40;99.90
5419;DHT22;2732;52.092;11.556;2024-03-23T16:58:45;8.10;99.90
5419;DHT22;2732;52.092;11.556;2024-03-23T17:03:51;7.90;99.90
5419;DHT22;2732;52.092;11.556;2024-03-23T17:09:01;7.70;99.90
5419;DHT22;2732;52.092;11.556;2024-03-23T17:14:06;7.50;99.90
5419;DHT22;2732;52.092;11.556;2024-03-23T17:19:06;7.30;99.90
5419;DHT22;2732;52.092;11.556;2024-03-23T17:24:08;7.20;99.90
5419;DHT22;2732;52.092;11.556;2024-03-23T17:29:09;7.00;99.90
5419;DHT22;2732;52.092;11.556;2024-03-23T17:34:09;6.90;99.90
5419;DHT22;2732;52.092;11.556;2024-03-23T17:39:13;6.70;99.90
5419;DHT22;2732;52.092;11.556;2024-03-23T17:44:13;6.60;99.90
5419;DHT22;2732;52.092;11.556;2024-03-23T17:49:14;6.40;99.90
5419;DHT22;2732;52.092;11.556;2024-03-23T17:54:16;6.30;99.90
5419;DHT22;2732;52.092;11.556;2024-03-23T17:59:22;6.20;99.90
5419;DHT22;2732;52.092;11.556;2024-03-23T18:04:23;6.10;99.90
5419;DHT22;2732;52.092;11.556;2024-03-23T18:09:24;6.00;99.90
5419;DHT22;2732;52.092;11.556;2024-03-23T18:14:27;5.90;99.90
5419;DHT22;2732;52.092;11.556;2024-03-23T18:19:28;5.80;99.90
5419;DHT22;2732;52.092;11.556;2024-03-23T18:24:29;5.80;99.90
5419;DHT22;2732;52.092;11.556;2024-03-23T18:29:30;5.70;99.90
5419;DHT22;2732;52.092;11.556;2024-03-23T18:34:30;5.60;99.90
5419;DHT22;2732;52.092;11.556;2024-03-23T18:39:31;5.60;99.90
5419;DHT22;2732;52.092;11.556;2024-03-23T18:44:32;5.50;99.90
5419;DHT22;2732;52.092;11.556;2024-03-23T18:49:32;5.40;99.90
5419;DHT22;2732;52.092;11.556;2024-03-23T18:54:33;5.40;99.90
5419;DHT22;2732;52.092;11.556;2024-03-23T18:59:34;5.30;99.90
5419;DHT22;2732;52.092;11.556;2024-03-23T19:04:34;5.30;99.90
5419;DHT22;2732;52.092;11.556;2024-03-23T19:09:35;5.20;99.90
5419;DHT22;2732;52.092;11.556;2024-03-23T19:14:35;5.10;99.90
5419;DHT22;2732;52.092;11.556;2024-03-23T19:19:36;5.10;99.90
5419;DHT22;2732;52.092;11.556;2024-03-23T19:24:36;5.00;99.90
5419;DHT22;2732;52.092;11.556;2024-03-23T19:29:37;4.90;99.90
5419;DHT22;2732;52.092;11.556;2024-03-23T19:34:38;4.90;99.90
5419;DHT22;2732;52.092;11.556;2024-03-23T19:39:38;4.80;99.90
5419;DHT22;2732;52.092;11.556;2024-03-23T19:44:43;4.70;99.90
5419;DHT22;2732;52.092;11.556;2024-03-23T19:49:44;4.70;99.90
5419;DHT22;2732;52.092;11.556;2024-03-23T19:54:45;4.60;99.90
5419;DHT22;2732;52.092;11.556;2024-03-23T19:59:45;4.50;99.90
5419;DHT22;2732;52.092;11.556;2024-03-23T20:04:46;4.50;99.90
5419;DHT22;2732;52.092;11.556;2024-03-23T20:09:46;4.50;99.90
5419;DHT22;2732;52.092;11.556;2024-03-23T20:14:47;4.40;99.90
5419;DHT22;2732;52.092;11.556;2024-03-23T20:19:47;4.40;99.90
5419;DHT22;2732;52.092;11.556;2024-03-23T20:24:48;4.40;99.90
5419;DHT22;2732;52.092;11.556;2024-03-23T20:29:50;4.30;99.90
5419;DHT22;2732;52.092;11.556;2024-03-23T20:34:52;4.30;99.90
5419;DHT22;2732;52.092;11.556;2024-03-23T20:39:53;4.20;99.90
5419;DHT22;2732;52.092;11.556;2024-03-23T20:44:54;4.20;99.90
5419;DHT22;2732;52.092;11.556;2024-03-23T20:49:58;4.10;99.90
5419;DHT22;2732;52.092;11.556;2024-03-23T20:54:58;4.10;99.90
5419;DHT22;2732;52.092;11.556;2024-03-23T21:00:00;4.00;99.90
5419;DHT22;2732;52.092;11.556;2024-03-23T21:05:01;4.00;99.90
5419;DHT22;2732;52.092;11.556;2024-03-23T21:10:02;4.00;99.90
5419;DHT22;2732;52.092;11.556;2024-03-23T21:15:02;3.90;99.90
5419;DHT22;2732;52.092;11.556;2024-03-23T21:20:10;4.00;99.90
5419;DHT22;2732;52.092;11.556;2024-03-23T21:25:13;3.90;99.90
5419;DHT22;2732;52.092;11.556;2024-03-23T21:30:14;3.90;99.90
5419;DHT22;2732;52.092;11.556;2024-03-23T21:35:15;3.90;99.90
5419;DHT22;2732;52.092;11.556;2024-03-23T21:40:16;3.90;99.90
5419;DHT22;2732;52.092;11.556;2024-03-23T21:45:16;3.80;99.90
5419;DHT22;2732;52.092;11.556;2024-03-23T21:50:17;3.80;99.90
5419;DHT22;2732;52.092;11.556;2024-03-23T21:55:17;3.80;99.90
5419;DHT22;2732;52.092;11.556;2024-03-23T22:00:18;3.70;99.90
5419;DHT22;2732;52.092;11.556;2024-03-23T22:05:19;3.70;99.90
5419;DHT22;2732;52.092;11.556;2024-03-23T22:10:19;3.70;99.90
5419;DHT22;2732;52.092;11.556;2024-03-23T22:15:20;3.70;99.90
5419;DHT22;2732;52.092;11.556;2024-03-23T22:20:20;3.60;99.90
5419;DHT22;2732;52.092;11.556;2024-03-23T22:25:25;3.60;99.90
5419;DHT22;2732;52.092;11.556;2024-03-23T22:30:27;3.60;99.90
5419;DHT22;2732;52.092;11.556;2024-03-23T22:35:27;3.50;99.90
5419;DHT22;2732;52.092;11.556;2024-03-23T22:40:28;3.50;99.90
5419;DHT22;2732;52.092;11.556;2024-03-23T22:45:29;3.50;99.90
5419;DHT22;2732;52.092;11.556;2024-03-23T22:50:29;3.50;99.90
5419;DHT22;2732;52.092;11.556;2024-03-23T22:55:31;3.50;99.90
5419;DHT22;2732;52.092;11.556;2024-03-23T23:00:31;3.50;99.90
5419;DHT22;2732;52.092;11.556;2024-03-23T23:05:33;3.50;99.90
5419;DHT22;2732;52.092;11.556;2024-03-23T23:10:34;3.50;99.90
5419;DHT22;2732;52.092;11.556;2024-03-23T23:15:35;3.50;99.90
5419;DHT22;2732;52.092;11.556;2024-03-23T23:20:35;3.50;99.90
5419;DHT22;2732;52.092;11.556;2024-03-23T23:25:36;3.40;99.90
5419;DHT22;2732;52.092;11.556;2024-03-23T23:30:36;3.40;99.90
5419;DHT22;2732;52.092;11.556;2024-03-23T23:35:37;3.30;99.90
5419;DHT22;2732;52.092;11.556;2024-03-23T23:40:38;3.30;99.90
5419;DHT22;2732;52.092;11.556;2024-03-23T23:45:38;3.30;99.90
5419;DHT22;2732;52.092;11.556;2024-03-23T23:50:39;3.30;99.90
5419;DHT22;2732;52.092;11.556;2024-03-23T23:55:40;3.30;99.90
